• Join FlightAware (Why Join?)
  • Login
  • US Flag 
07:07PM EST


 

Airport Tracker/Info


-or-


 

Live Flight TrackerFlight Track Log ✈ ANT505 ✈ 27-Jun-2013 ✈ CYXY - CYVR

Flight Track Log - Related Links

Times and Time Zones

All times are in EDT time to prevent confusion due to time zone crossing. See the ANT505 flight status page for this flight to view local times or setup timezone preferences in your user account.

Time Position Orientation Groundspeed Altitude Reporting Facility
EDT Latitude Longitude Course Direction KTS MPH feet Rate Location/Type
11:16AM 60.2035 -134.4382 141° Southeast  Level FlightAware Approximate
11:17AM 60.1217 -134.3071 141° Southeast  Level FlightAware Approximate
11:18AM 60.0397 -134.1767 142° Southeast  Level FlightAware Approximate
11:19AM 59.9582 -134.0455 143° Southeast  Level FlightAware Approximate
11:20AM 59.8745 -133.9200 143° Southeast  Level FlightAware Approximate
11:21AM 59.7934 -133.7886 140° Southeast  Level FlightAware Approximate
11:22AM 59.7132 -133.6552 140° Southeast  Level FlightAware Approximate
11:23AM 59.6348 -133.5246 140° Southeast  Level FlightAware Approximate
11:24AM 59.5548 -133.3913 140° Southeast  Level FlightAware Approximate
11:25AM 59.4718 -133.2657 143° Southeast  Level FlightAware Approximate
11:26AM 59.3890 -133.1398 141° Southeast  Level FlightAware Approximate
11:27AM 59.3073 -133.0115 141° Southeast  Level FlightAware Approximate
11:28AM 59.2259 -132.8828 141° Southeast  Level FlightAware Approximate
11:29AM 59.1444 -132.7547 141° Southeast  Level FlightAware Approximate
11:30AM 59.0627 -132.6273 142° Southeast  Level FlightAware Approximate
11:31AM 58.9803 -132.5020 142° Southeast  Level FlightAware Approximate
11:32AM 58.8977 -132.3774 142° Southeast  Level FlightAware Approximate
11:33AM 58.8150 -132.2533 142° Southeast  Level FlightAware Approximate
11:34AM 58.7322 -132.1298 142° Southeast  Level FlightAware Approximate
11:35AM 58.6493 -132.0069 142° Southeast  Level FlightAware Approximate
11:36AM 58.5656 -131.8863 143° Southeast  Level FlightAware Approximate
11:37AM 58.4817 -131.7666 143° Southeast  Level FlightAware Approximate
11:38AM 58.3977 -131.6474 143° Southeast  Level FlightAware Approximate
11:39AM 58.3135 -131.5288 143° Southeast  Level FlightAware Approximate
11:40AM 58.2302 -131.4084 143° Southeast  Level FlightAware Approximate
11:41AM 58.1468 -131.2885 143° Southeast  Level FlightAware Approximate
11:42AM 58.0632 -131.1692 143° Southeast  Level FlightAware Approximate
11:43AM 57.9795 -131.0505 143° Southeast  Level FlightAware Approximate
11:44AM 57.8958 -130.9323 143° Southeast  Level FlightAware Approximate
11:45AM 57.8119 -130.8147 143° Southeast  Level FlightAware Approximate
11:46AM 57.7279 -130.6977 143° Southeast  Level FlightAware Approximate
11:47AM 57.6438 -130.5811 143° Southeast  Level FlightAware Approximate
11:48AM 57.5593 -130.4658 144° Southeast  Level FlightAware Approximate
11:49AM 57.4747 -130.3511 144° Southeast  Level FlightAware Approximate
11:50AM 57.3900 -130.2369 144° Southeast  Level FlightAware Approximate
11:51AM 57.3052 -130.1232 144° Southeast  Level FlightAware Approximate
11:52AM 57.2203 -130.0101 144° Southeast  Level FlightAware Approximate
11:53AM 57.1353 -129.8975 144° Southeast  Level FlightAware Approximate
11:54AM 57.0502 -129.7854 144° Southeast  Level FlightAware Approximate
11:54AM 57.0333 -129.8333 152° Southeast 460 529 35,000  Level Vancouver Center
11:55AM 56.9650 -129.6739 144° Southeast  Level FlightAware Approximate
11:55AM 56.9667 -129.7333 141° Southeast 360 414 35,000  Level Vancouver Center
11:56AM 56.8797 -129.5628 145° Southeast  Level FlightAware Approximate
11:56AM 56.8667 -129.5833 141° Southeast 370 426 35,000  Level Vancouver Center
11:57AM 56.7943 -129.4522 145° Southeast  Level FlightAware Approximate
11:57AM 56.7833 -129.4833 147° Southeast 380 437 35,000  Level Vancouver Center
11:58AM 56.7041 -129.3560 152° Southeast  Level FlightAware Approximate
11:58AM 56.7000 -129.3833 147° Southeast 380 437 35,000  Level Vancouver Center
11:59AM 56.6116 -129.2668 152° Southeast  Level FlightAware Approximate
11:59AM 56.6000 -129.3000 155° Southeast 380 437 35,000  Level Vancouver Center
12:00PM 56.5000 -129.2000 151° Southeast 390 449 35,000  Level Vancouver Center
12:01PM 56.4167 -129.1333 156° South 370 426 35,000  Level Vancouver Center
12:02PM 56.3167 -129.0333 151° Southeast 370 426 35,000  Level Vancouver Center
12:03PM 56.2333 -128.9500 151° Southeast 370 426 35,000  Level Vancouver Center
12:04PM 56.1333 -128.8500 151° Southeast 380 437 35,000  Level Vancouver Center
12:05PM 56.0500 -128.7833 156° South 360 414 35,000  Level Vancouver Center
12:06PM 55.9500 -128.6833 151° Southeast 370 426 35,000  Level Vancouver Center
12:07PM 55.8500 -128.6167 159° South 370 426 35,000  Level Vancouver Center
12:08PM 55.7667 -128.5000 142° Southeast 370 426 35,000  Level Vancouver Center
12:09PM 55.6833 -128.4333 156° South 380 437 35,000  Level Vancouver Center
12:10PM 55.5833 -128.3333 151° Southeast 370 426 35,000  Level Vancouver Center
12:11PM 55.4833 -128.2333 150° Southeast 380 437 35,000  Level Vancouver Center
12:12PM 55.3833 -128.1667 159° South 380 437 35,000  Level Vancouver Center
12:13PM 55.3000 -128.0667 146° Southeast 400 460 35,000  Level Vancouver Center
12:14PM 55.2000 -128.0000 159° South 390 449 35,000  Level Vancouver Center
12:15PM 55.1167 -127.9167 150° Southeast 390 449 35,000  Level Vancouver Center
12:16PM 55.0000 -127.8167 154° Southeast 400 460 35,000  Level Vancouver Center
12:17PM 54.9000 -127.7500 159° South 410 472 35,000  Level Vancouver Center
12:18PM 54.7833 -127.6500 154° Southeast 410 472 35,000  Level Vancouver Center
12:19PM 54.7000 -127.5500 145° Southeast 410 472 35,000  Level Vancouver Center
12:20PM 54.6000 -127.4500 150° Southeast 420 483 35,000  Level Vancouver Center
12:21PM 54.5000 -127.3667 154° Southeast 430 495 35,000  Level Vancouver Center
12:22PM 54.3833 -127.3000 162° South 410 472 35,000  Level Vancouver Center
12:23PM 54.2833 -127.2000 150° Southeast 410 472 35,000  Level Vancouver Center
12:24PM 54.1833 -127.1000 150° Southeast 410 472 35,000  Level Vancouver Center
12:25PM 54.0833 -127.0333 159° South 410 472 35,000  Level Vancouver Center
12:26PM 53.9667 -126.9500 157° South 420 483 35,000  Level Vancouver Center
12:27PM 53.8667 -126.8500 149° Southeast 420 483 35,000  Level Vancouver Center
12:28PM 53.7667 -126.7667 154° Southeast 410 472 35,000  Level Vancouver Center
12:29PM 53.6667 -126.7000 158° South 410 472 35,000  Level Vancouver Center
12:30PM 53.5667 -126.6000 149° Southeast 410 472 35,000  Level Vancouver Center
12:31PM 53.4500 -126.5167 157° South 410 472 35,000  Level Vancouver Center
12:32PM 53.3500 -126.4333 154° Southeast 410 472 35,000  Level Vancouver Center
12:33PM 53.2500 -126.3333 149° Southeast 410 472 35,000  Level Vancouver Center
12:34PM 53.1500 -126.2667 158° South 410 472 35,000  Level Vancouver Center
12:35PM 53.0333 -126.1833 157° South 410 472 35,000  Level Vancouver Center
12:36PM 52.9333 -126.1000 153° Southeast 410 472 35,000  Level Vancouver Center
12:37PM 52.8333 -126.0333 158° South 410 472 35,000  Level Vancouver Center
12:38PM 52.7500 -125.9500 149° Southeast 410 472 35,000  Level Vancouver Center
12:39PM 52.6500 -125.8667 153° Southeast 400 460 35,000  Level Vancouver Center
12:40PM 52.5333 -125.8000 161° South 400 460 35,000  Level Vancouver Center
12:41PM 52.4500 -125.7167 149° Southeast 400 460 35,000  Level Vancouver Center
12:42PM 52.3333 -125.6333 156° South 390 449 35,000  Level Vancouver Center
12:43PM 52.2500 -125.5667 154° Southeast 390 449 35,000  Level Vancouver Center
12:44PM 52.1333 -125.4833 156° South 390 449 35,000  Level Vancouver Center
12:45PM 52.0500 -125.4000 148° Southeast 390 449 35,000  Level Vancouver Center
12:46PM 51.9500 -125.3500 163° South 390 449 35,000  Level Vancouver Center
12:47PM 51.8333 -125.2500 152° Southeast 390 449 35,000  Level Vancouver Center
12:48PM 51.7500 -125.2000 160° South 390 449 35,000  Level Vancouver Center
12:49PM 51.6500 -125.1167 153° Southeast 390 449 35,000  Level Vancouver Center
12:50PM 51.5333 -125.0333 156° South 400 460 35,000  Level Vancouver Center
12:51PM 51.4333 -124.9833 163° South 400 460 35,000  Level Vancouver Center
12:52PM 51.3333 -124.9000 152° Southeast 400 460 35,000  Level Vancouver Center
12:53PM 51.2333 -124.8167 152° Southeast 400 460 35,000  Level Vancouver Center
12:54PM 51.1333 -124.7500 157° South 400 460 35,000  Level Vancouver Center
12:55PM 51.0333 -124.6667 152° Southeast 400 460 35,000  Level Vancouver Center
12:56PM 50.9333 -124.6000 157° South 390 449 35,000  Level Vancouver Center
12:57PM 50.8333 -124.5333 157° South 390 449 35,000  Level Vancouver Center
12:58PM 50.7333 -124.4500 152° Southeast 390 449 35,000 -300 Level Vancouver Center
12:59PM 50.6333 -124.3833 157° South 380 437 34,400 -1,800 Descending Vancouver Center
01:00PM 50.5500 -124.3167 153° Southeast 380 437 31,400 -2,820 Descending Vancouver Center
01:01PM 50.4500 -124.2500 157° South 390 449 28,800 -2,460 Descending Vancouver Center
01:02PM 50.3500 -124.1667 152° Southeast 370 426 26,500 -2,340 Descending Vancouver Center
01:03PM 50.2667 -124.0833 147° Southeast 360 414 24,200 -2,220 Descending Vancouver Center
01:04PM 50.1833 -124.0333 159° South 360 414 22,100 -2,100 Descending Vancouver Center
01:05PM 50.1000 -123.9500 147° Southeast 350 403 20,100 -2,100 Descending Vancouver Center
01:06PM 50.0167 -123.9000 159° South 330 380 17,900 -2,040 Descending Vancouver Center
01:07PM 49.9333 -123.8167 147° Southeast 330 380 16,100 -1,980 Descending Vancouver Center
01:08PM 49.8500 -123.7667 159° South 320 368 14,000 -1,800 Descending Vancouver Center
01:09PM 49.7667 -123.7167 159° South 310 357 12,500 -1,260 Descending Vancouver Center
01:10PM 49.7000 -123.6500 147° Southeast 290 334 11,500 -1,380 Descending Vancouver Center
01:11PM 49.6333 -123.6167 162° South 280 322 9,800 -1,620 Descending Vancouver Center
01:12PM 49.5667 -123.6000 171° South 270 311 8,300 -1,440 Descending Vancouver Center
01:13PM 49.4833 -123.5667 165° South 260 299 7,000 -660 Descending Vancouver Center
01:14PM 49.4167 -123.5500 171° South 260 299 7,000 -600 Level Vancouver Center
01:15PM 49.3500 -123.5167 162° South 260 299 5,900 -1,200 Descending Vancouver Center
01:16PM 49.2833 -123.5000 171° South 240 276 4,700 -1,200 Descending Vancouver Center
01:17PM 49.2333 -123.4333 139° Southeast 210 242 3,600 -1,140 Descending Vancouver Center
01:18PM 49.2167 -123.3833 117° Southeast 170 196 2,500 -900 Descending Vancouver Center
01:19PM 49.2000 -123.3333 117° Southeast 150 173 1,800 -780 Descending Vancouver Center
01:20PM 49.2000 -123.2667 90° East 140 161 1,000 -600 Descending Vancouver Center
01:21PM 49.1833 -123.2167 117° Southeast 130 150 600 -420 Descending Vancouver Center